Waterville, Vermont
Current Conditions -  °F | °C
As of 8:15 PM on Sunday 23 Nov 2014 (Local Time) from KFSO Reporting Station
Broken Clouds Broken Clouds  
Wind Chill: 41°   Ceiling: 6000
Heat Index: 44°   Visibility: 10mi
Dew Point: 40°   Wind: 6mph
Humidity: 84%   Direction: 130°SE
Pressure: 30"   Gusts: NA
Location:  44.69°N, 72.77°W
Report Text: KFSO 240115Z AUTO 13005KT 10SM BKN060 07/04 A3000 RMK AO2 T00680042
Loading
Personal Weather Stations






























Interactive Weather Map New forecast layout! Learn more

10-Day Weather Forecast

Advertisements
Track Severe Weather on mobile